createdAt,value
2023-02-17T00:00:54.111Z,60.15
2023-02-17T00:04:03.939Z,61.32
2023-02-17T00:07:10.616Z,60.27
2023-02-17T00:10:16.562Z,60.42
2023-02-17T00:13:23.228Z,60.09
2023-02-17T00:16:32.331Z,60.67
2023-02-17T00:19:41.663Z,60.20
2023-02-17T00:22:47.568Z,57.56
2023-02-17T00:25:54.278Z,58.87
2023-02-17T00:29:02.084Z,58.55
2023-02-17T00:32:10.709Z,58.72
2023-02-17T00:35:19.882Z,61.72
2023-02-17T00:38:26.845Z,62.25
2023-02-17T00:41:33.802Z,64.85
2023-02-17T00:44:40.486Z,63.59
2023-02-17T00:47:46.255Z,64.15
2023-02-17T00:50:55.582Z,65.66
2023-02-17T00:54:01.417Z,66.77
2023-02-17T00:57:08.268Z,66.89
2023-02-17T01:00:16.083Z,67.26
2023-02-17T01:03:23.159Z,67.49
2023-02-17T01:06:36.807Z,66.95
2023-02-17T01:09:43.548Z,67.38
2023-02-17T01:12:49.370Z,66.44
2023-02-17T01:15:57.075Z,65.98
2023-02-17T01:19:03.686Z,65.29
2023-02-17T01:22:13.810Z,66.75
2023-02-17T01:25:19.830Z,64.77
2023-02-17T01:28:26.721Z,63.39
2023-02-17T01:31:39.447Z,62.43
2023-02-17T01:34:46.341Z,61.33
2023-02-17T01:37:54.778Z,60.96
2023-02-17T01:41:07.797Z,61.45
2023-02-17T01:44:21.987Z,61.14
2023-02-17T01:47:32.840Z,60.25
2023-02-17T01:50:48.222Z,60.40
2023-02-17T01:54:10.573Z,59.33
2023-02-17T01:57:26.786Z,57.97
2023-02-17T02:00:44.117Z,57.49
2023-02-17T02:03:53.576Z,57.06
2023-02-17T02:07:04.975Z,55.54
2023-02-17T02:10:17.562Z,56.48
2023-02-17T02:13:24.925Z,60.80
2023-02-17T02:16:49.803Z,62.91
2023-02-17T02:20:31.542Z,62.21
2023-02-17T02:24:08.319Z,55.13
2023-02-17T02:27:48.952Z,53.69
2023-02-17T02:31:27.705Z,52.54
2023-02-17T02:34:55.245Z,53.49
2023-02-17T02:38:12.218Z,52.22
2023-02-17T02:41:29.652Z,51.74
2023-02-17T02:44:35.599Z,50.93
2023-02-17T02:47:56.144Z,50.13
2023-02-17T02:51:35.564Z,52.76
2023-02-17T02:55:00.652Z,51.66
2023-02-17T02:58:22.401Z,50.92
2023-02-17T03:01:47.370Z,49.87
2023-02-17T03:05:14.249Z,49.63
2023-02-17T03:08:36.317Z,51.12
2023-02-17T03:11:49.129Z,50.67
2023-02-17T03:15:08.212Z,50.04
2023-02-17T03:18:14.424Z,48.49
2023-02-17T03:21:23.052Z,48.57
2023-02-17T03:24:36.463Z,48.27
2023-02-17T03:27:46.744Z,47.56
2023-02-17T03:30:53.794Z,47.07
2023-02-17T03:34:02.452Z,47.67
2023-02-17T03:37:08.274Z,48.13
2023-02-17T03:40:17.769Z,48.06
2023-02-17T03:43:23.877Z,48.26
2023-02-17T03:46:30.870Z,49.00
2023-02-17T03:49:36.927Z,50.35
2023-02-17T03:52:43.611Z,51.25
2023-02-17T03:55:52.220Z,48.90
2023-02-17T03:58:59.029Z,49.45
2023-02-17T04:02:04.925Z,49.36
2023-02-17T04:05:12.007Z,48.72
2023-02-17T04:08:18.019Z,48.50
2023-02-17T04:11:27.576Z,49.86
2023-02-17T04:14:33.507Z,50.34
2023-02-17T04:17:41.096Z,49.24
2023-02-17T04:20:47.385Z,49.47
2023-02-17T04:23:55.311Z,47.83
2023-02-17T04:27:03.937Z,48.82
2023-02-17T04:30:12.924Z,49.34
2023-02-17T04:33:20.344Z,51.46
2023-02-17T04:36:28.186Z,56.93
2023-02-17T04:39:34.100Z,60.38
2023-02-17T04:42:43.470Z,57.42
2023-02-17T04:45:49.344Z,54.77
2023-02-17T04:48:56.237Z,53.66
2023-02-17T04:52:02.360Z,58.28
2023-02-17T04:55:11.244Z,67.08
2023-02-17T04:58:20.958Z,55.79
2023-02-17T05:01:27.769Z,52.55
2023-02-17T05:04:34.395Z,51.65
2023-02-17T05:07:41.087Z,49.08
2023-02-17T05:10:47.385Z,50.87
2023-02-17T05:13:56.743Z,49.13
2023-02-17T05:17:02.627Z,51.07
2023-02-17T05:20:12.748Z,51.77
2023-02-17T05:23:18.706Z,52.63
2023-02-17T05:26:25.445Z,50.60
2023-02-17T05:29:33.972Z,50.83
2023-02-17T05:32:40.713Z,51.01
2023-02-17T05:35:46.608Z,49.18
2023-02-17T05:38:53.498Z,47.56
2023-02-17T05:41:59.472Z,49.07
2023-02-17T05:45:09.593Z,47.28
2023-02-17T05:48:15.686Z,48.08
2023-02-17T05:51:22.451Z,50.85
2023-02-17T05:54:28.374Z,52.61
2023-02-17T05:57:35.695Z,51.71
2023-02-17T06:00:44.195Z,54.10
2023-02-17T06:03:51.377Z,56.48
2023-02-17T06:06:57.303Z,60.03
2023-02-17T06:10:04.049Z,55.58
2023-02-17T06:13:09.953Z,56.36
2023-02-17T06:16:19.361Z,55.01
2023-02-17T06:19:25.228Z,54.26
2023-02-17T06:22:31.882Z,52.30
2023-02-17T06:25:37.788Z,51.81
2023-02-17T06:28:44.535Z,51.69
2023-02-17T06:31:53.207Z,48.93
2023-02-17T06:34:59.915Z,47.17
2023-02-17T06:38:05.832Z,47.41
2023-02-17T06:41:12.604Z,45.51
2023-02-17T06:44:18.502Z,45.94
2023-02-17T06:47:27.809Z,44.17
2023-02-17T06:50:33.704Z,43.51
2023-02-17T06:53:40.554Z,42.50
2023-02-17T06:56:46.781Z,41.08
2023-02-17T06:59:53.487Z,40.67
2023-02-17T07:03:02.123Z,41.27
2023-02-17T07:06:09.501Z,40.77
2023-02-17T07:09:15.449Z,41.30
2023-02-17T07:12:22.231Z,41.84
2023-02-17T07:15:28.510Z,41.66
2023-02-17T07:18:38.343Z,39.88
2023-02-17T07:21:44.446Z,41.81
2023-02-17T07:24:51.332Z,42.41
2023-02-17T07:27:57.343Z,42.52
2023-02-17T07:31:09.767Z,42.88
2023-02-17T07:34:18.336Z,41.44
2023-02-17T07:37:25.211Z,42.62
2023-02-17T07:40:31.994Z,43.98
2023-02-17T07:43:38.913Z,39.96
2023-02-17T07:46:45.042Z,39.74
2023-02-17T07:49:54.466Z,41.86
2023-02-17T07:53:00.347Z,41.58
2023-02-17T07:56:08.547Z,43.13
2023-02-17T07:59:16.396Z,42.79
2023-02-17T08:02:23.258Z,42.43
2023-02-17T08:05:31.911Z,44.28
2023-02-17T08:08:51.124Z,51.70
2023-02-17T08:12:09.606Z,50.51
2023-02-17T08:15:17.082Z,45.75
2023-02-17T08:18:23.058Z,46.99
2023-02-17T08:21:33.524Z,47.14
2023-02-17T08:24:39.389Z,46.45
2023-02-17T08:27:46.277Z,47.96
2023-02-17T08:30:52.177Z,41.74
2023-02-17T08:34:00.438Z,40.00
2023-02-17T08:37:10.238Z,42.47
2023-02-17T08:40:17.050Z,43.50
2023-02-17T08:43:22.905Z,45.23
2023-02-17T08:46:31.268Z,40.88
2023-02-17T08:49:37.341Z,38.92
2023-02-17T08:52:46.675Z,37.88
2023-02-17T08:55:52.460Z,37.67
2023-02-17T08:59:00.255Z,35.70
2023-02-17T09:02:06.320Z,36.83
2023-02-17T09:05:13.983Z,37.80
2023-02-17T09:08:23.466Z,38.35
2023-02-17T09:11:30.545Z,38.37
2023-02-17T09:14:36.828Z,39.78
2023-02-17T09:17:44.379Z,42.30
2023-02-17T09:20:50.520Z,37.76
2023-02-17T09:24:00.009Z,35.63
2023-02-17T09:27:06.100Z,39.14
2023-02-17T09:30:14.867Z,47.69
2023-02-17T09:33:20.801Z,51.96
2023-02-17T09:36:33.746Z,47.24
2023-02-17T09:39:42.334Z,39.37
2023-02-17T09:42:50.543Z,36.82
2023-02-17T09:46:04.369Z,35.93
2023-02-17T09:49:19.270Z,37.16
2023-02-17T09:52:36.537Z,38.54
2023-02-17T09:55:54.844Z,39.88
2023-02-17T09:59:10.343Z,34.96
2023-02-17T10:02:31.251Z,36.84
2023-02-17T10:05:45.562Z,36.23
2023-02-17T10:09:02.131Z,34.99
2023-02-17T10:12:18.889Z,36.63
2023-02-17T10:15:34.721Z,33.34
2023-02-17T10:18:50.619Z,33.20
2023-02-17T10:22:14.022Z,32.94
2023-02-17T10:25:28.226Z,32.91
2023-02-17T10:28:54.065Z,31.59
2023-02-17T10:32:22.484Z,33.55
2023-02-17T10:35:51.328Z,34.45
2023-02-17T10:39:09.614Z,34.29
2023-02-17T10:42:28.291Z,34.28
2023-02-17T10:45:41.397Z,33.87
2023-02-17T10:48:55.473Z,36.51
2023-02-17T10:52:09.062Z,37.09
2023-02-17T10:55:28.622Z,39.35
2023-02-17T10:58:44.357Z,36.20
2023-02-17T11:01:54.820Z,35.02
2023-02-17T11:05:00.822Z,31.82
2023-02-17T11:08:31.293Z,31.76
2023-02-17T11:11:40.033Z,34.74
2023-02-17T11:14:51.965Z,38.10
2023-02-17T11:18:11.910Z,34.32
2023-02-17T11:21:19.007Z,32.46
2023-02-17T11:24:25.549Z,36.77
2023-02-17T11:27:33.360Z,33.63
2023-02-17T11:30:41.715Z,30.47
2023-02-17T11:33:51.173Z,32.79
2023-02-17T11:37:07.236Z,30.77
2023-02-17T11:40:29.252Z,31.62
2023-02-17T11:43:36.031Z,33.00
2023-02-17T11:46:55.920Z,32.21
2023-02-17T11:50:41.277Z,31.03
2023-02-17T11:54:07.789Z,31.03
2023-02-17T11:57:39.260Z,34.30
2023-02-17T12:01:12.097Z,38.16
2023-02-17T12:04:30.975Z,37.26
2023-02-17T12:08:02.796Z,35.65
2023-02-17T12:11:32.181Z,36.34
2023-02-17T12:15:10.175Z,32.48
2023-02-17T12:18:42.397Z,33.54
2023-02-17T12:22:11.752Z,37.34
2023-02-17T12:25:31.150Z,43.35
2023-02-17T12:29:31.954Z,49.29
2023-02-17T12:33:08.193Z,39.86
2023-02-17T12:36:26.852Z,37.78
2023-02-17T12:39:44.690Z,36.52
2023-02-17T12:43:05.118Z,33.76
2023-02-17T12:46:23.280Z,31.73
2023-02-17T12:49:40.609Z,33.73
2023-02-17T12:53:03.678Z,33.39
2023-02-17T12:56:51.136Z,32.89
2023-02-17T13:00:05.616Z,32.98
2023-02-17T13:03:13.898Z,33.17
2023-02-17T13:06:39.452Z,33.16
2023-02-17T13:09:56.661Z,33.79
2023-02-17T13:13:21.274Z,35.43
2023-02-17T13:16:35.599Z,38.11
2023-02-17T13:19:42.267Z,35.40
2023-02-17T13:22:51.422Z,36.29
2023-02-17T13:26:29.373Z,35.56
2023-02-17T13:29:39.416Z,48.11
2023-02-17T13:33:08.917Z,48.09
2023-02-17T13:36:20.846Z,46.74
2023-02-17T13:39:41.792Z,39.49
2023-02-17T13:42:50.458Z,42.35
2023-02-17T13:46:10.955Z,49.08
2023-02-17T13:49:29.535Z,45.08
2023-02-17T13:52:36.111Z,48.98
2023-02-17T13:55:43.562Z,40.17
2023-02-17T13:58:49.412Z,35.92
2023-02-17T14:01:58.006Z,30.01
2023-02-17T14:05:21.850Z,28.06
2023-02-17T14:08:40.174Z,26.47
2023-02-17T14:11:46.304Z,27.12
2023-02-17T14:14:53.719Z,28.05
2023-02-17T14:18:00.275Z,28.15
2023-02-17T14:21:13.262Z,27.03
2023-02-17T14:24:32.201Z,30.42
2023-02-17T14:27:47.277Z,29.46
2023-02-17T14:30:54.713Z,29.07
2023-02-17T14:34:05.979Z,27.70
2023-02-17T14:37:31.173Z,28.60
2023-02-17T14:40:40.013Z,32.09
2023-02-17T14:43:46.056Z,30.78
2023-02-17T14:46:52.782Z,30.66
2023-02-17T14:49:58.737Z,30.87
2023-02-17T14:53:17.614Z,31.36
2023-02-17T14:56:32.671Z,33.55
2023-02-17T14:59:39.836Z,32.39
2023-02-17T15:02:45.987Z,32.51
2023-02-17T15:05:53.485Z,33.46
2023-02-17T15:09:04.275Z,37.48
2023-02-17T15:12:20.233Z,36.89
2023-02-17T15:15:26.575Z,36.21
2023-02-17T15:18:33.547Z,36.74
2023-02-17T15:21:43.239Z,36.59
2023-02-17T15:24:53.236Z,37.01
2023-02-17T15:27:59.504Z,37.54
2023-02-17T15:31:06.747Z,41.00
2023-02-17T15:34:18.970Z,35.52
2023-02-17T15:37:25.886Z,31.50
2023-02-17T15:40:34.908Z,33.15
2023-02-17T15:43:41.921Z,31.80
2023-02-17T15:46:49.066Z,29.75
2023-02-17T15:49:55.825Z,28.35
2023-02-17T15:53:02.728Z,25.84
2023-02-17T15:56:22.335Z,27.44
2023-02-17T15:59:31.123Z,26.44
2023-02-17T16:02:37.959Z,26.55
2023-02-17T16:05:45.537Z,27.15
2023-02-17T16:08:52.545Z,28.88
2023-02-17T16:12:01.815Z,27.73
2023-02-17T16:15:14.226Z,27.15
2023-02-17T16:18:26.009Z,28.51
2023-02-17T16:21:39.561Z,30.71
2023-02-17T16:24:47.031Z,29.71
2023-02-17T16:27:58.087Z,32.10
2023-02-17T16:31:13.822Z,27.62
2023-02-17T16:34:24.882Z,29.66
2023-02-17T16:37:30.968Z,29.96
2023-02-17T16:40:47.338Z,32.38
2023-02-17T16:43:58.942Z,29.70
2023-02-17T16:47:08.987Z,29.10
2023-02-17T16:50:27.126Z,28.50
2023-02-17T16:53:33.993Z,28.61
2023-02-17T16:56:46.496Z,28.97
2023-02-17T16:59:56.183Z,29.45
2023-02-17T17:03:04.998Z,25.67
2023-02-17T17:06:25.719Z,27.21
2023-02-17T17:09:31.636Z,25.85
2023-02-17T17:12:38.882Z,26.72
2023-02-17T17:15:49.084Z,26.25
2023-02-17T17:18:56.309Z,25.44
2023-02-17T17:22:04.960Z,25.93
2023-02-17T17:25:18.517Z,27.71
2023-02-17T17:28:26.562Z,27.70
2023-02-17T17:31:40.965Z,23.82
2023-02-17T17:34:47.176Z,24.14
2023-02-17T17:37:54.289Z,27.62
2023-02-17T17:41:00.292Z,25.31
2023-02-17T17:44:10.481Z,25.43
2023-02-17T17:47:29.821Z,26.01
2023-02-17T17:50:36.792Z,24.39
2023-02-17T17:53:42.892Z,24.85
2023-02-17T17:56:50.504Z,25.33
2023-02-17T17:59:58.172Z,24.95
2023-02-17T18:03:08.017Z,21.76
2023-02-17T18:06:21.886Z,21.60
2023-02-17T18:09:36.035Z,22.96
2023-02-17T18:12:45.334Z,23.80
2023-02-17T18:15:52.635Z,22.94
2023-02-17T18:19:06.091Z,25.82
2023-02-17T18:22:16.323Z,24.26
2023-02-17T18:25:23.200Z,23.49
2023-02-17T18:28:30.034Z,24.28
2023-02-17T18:31:38.120Z,24.34
2023-02-17T18:34:47.449Z,25.45
2023-02-17T18:37:53.915Z,24.48
2023-02-17T18:41:03.210Z,25.08
2023-02-17T18:44:11.207Z,24.68
2023-02-17T18:47:18.024Z,24.92
2023-02-17T18:50:27.107Z,24.24
2023-02-17T18:53:36.245Z,28.14
2023-02-17T18:56:42.326Z,28.38
2023-02-17T18:59:50.788Z,25.19
2023-02-17T19:03:03.484Z,24.90
2023-02-17T19:06:19.422Z,23.63
2023-02-17T19:09:25.306Z,26.26
2023-02-17T19:12:32.159Z,26.76
2023-02-17T19:15:38.161Z,24.96
2023-02-17T19:18:46.949Z,24.33
2023-02-17T19:21:56.093Z,25.29
2023-02-17T19:25:07.012Z,23.20
2023-02-17T19:28:13.134Z,23.66
2023-02-17T19:31:23.452Z,22.79
2023-02-17T19:34:31.357Z,24.26
2023-02-17T19:37:43.662Z,24.46
2023-02-17T19:40:50.658Z,24.16
2023-02-17T19:43:57.379Z,23.53
2023-02-17T19:47:05.007Z,24.90
2023-02-17T19:50:12.352Z,24.08
2023-02-17T19:53:27.601Z,23.60
2023-02-17T19:56:37.157Z,24.12
2023-02-17T19:59:43.017Z,24.00
2023-02-17T20:02:50.220Z,23.49
2023-02-17T20:05:56.179Z,23.80
2023-02-17T20:09:14.878Z,23.19
2023-02-17T20:12:21.939Z,27.19
2023-02-17T20:15:28.864Z,23.97
2023-02-17T20:18:34.772Z,23.13
2023-02-17T20:21:47.176Z,23.92
2023-02-17T20:24:55.720Z,22.15
2023-02-17T20:28:04.380Z,23.37
2023-02-17T20:31:11.980Z,27.57
2023-02-17T20:34:34.901Z,28.05
2023-02-17T20:37:40.748Z,29.02
2023-02-17T20:40:50.122Z,28.94
2023-02-17T20:43:56.344Z,28.60
2023-02-17T20:47:17.587Z,27.00
2023-02-17T20:50:26.171Z,24.94
2023-02-17T20:53:32.903Z,25.95
2023-02-17T20:56:45.376Z,28.46
2023-02-17T20:59:52.249Z,26.87
2023-02-17T21:02:58.590Z,22.50
2023-02-17T21:06:24.356Z,26.41
2023-02-17T21:09:30.698Z,27.39
2023-02-17T21:12:40.602Z,27.20
2023-02-17T21:15:46.794Z,26.73
2023-02-17T21:18:55.293Z,26.13
2023-02-17T21:22:01.522Z,27.86
2023-02-17T21:25:12.240Z,29.27
2023-02-17T21:28:25.445Z,27.34
2023-02-17T21:31:32.359Z,25.21
2023-02-17T21:34:42.032Z,26.27
2023-02-17T21:37:48.937Z,23.91
2023-02-17T21:40:55.033Z,20.03
2023-02-17T21:44:16.928Z,18.94
2023-02-17T21:47:26.912Z,18.32
2023-02-17T21:50:37.505Z,17.50
2023-02-17T21:53:43.790Z,17.51
2023-02-17T21:56:50.629Z,17.00
2023-02-17T21:59:59.245Z,19.44
2023-02-17T22:03:05.980Z,19.69
2023-02-17T22:06:22.435Z,18.09
2023-02-17T22:09:32.431Z,17.05
2023-02-17T22:12:39.842Z,18.86
2023-02-17T22:15:49.237Z,22.96
2023-02-17T22:18:55.457Z,22.70
2023-02-17T22:22:08.639Z,18.78
2023-02-17T22:25:33.526Z,15.18
2023-02-17T22:28:40.313Z,15.22
2023-02-17T22:31:50.630Z,14.82
2023-02-17T22:34:57.707Z,16.53
2023-02-17T22:38:03.702Z,16.94
2023-02-17T22:41:13.870Z,16.54
2023-02-17T22:44:20.023Z,17.23
2023-02-17T22:47:29.575Z,16.81
2023-02-17T22:50:35.547Z,15.56
2023-02-17T22:53:42.903Z,14.89
2023-02-17T22:56:48.945Z,15.11
2023-02-17T22:59:55.767Z,15.94
2023-02-17T23:03:04.374Z,16.28
2023-02-17T23:06:18.122Z,15.80
2023-02-17T23:09:24.064Z,17.42
2023-02-17T23:12:30.877Z,16.53
2023-02-17T23:15:42.562Z,16.65
2023-02-17T23:18:52.004Z,16.56
2023-02-17T23:22:03.187Z,16.69
2023-02-17T23:25:09.979Z,17.11
2023-02-17T23:28:16.010Z,18.89
2023-02-17T23:31:22.852Z,18.78
2023-02-17T23:34:32.183Z,20.52
2023-02-17T23:37:38.949Z,27.56
2023-02-17T23:40:45.561Z,35.64
2023-02-17T23:43:52.457Z,22.18
2023-02-17T23:46:58.286Z,15.64
2023-02-17T23:50:09.821Z,14.76
2023-02-17T23:53:15.896Z,14.65
2023-02-17T23:56:27.954Z,14.68
2023-02-17T23:59:40.667Z,16.04
